createdAt,value
2024-03-08T00:00:44.087Z,9.82
2024-03-08T00:03:14.453Z,11.00
2024-03-08T00:05:43.082Z,10.35
2024-03-08T00:08:11.840Z,10.43
2024-03-08T00:10:40.719Z,9.65
2024-03-08T00:13:09.323Z,9.85
2024-03-08T00:15:37.865Z,10.43
2024-03-08T00:18:06.685Z,9.10
2024-03-08T00:20:36.843Z,8.90
2024-03-08T00:23:05.371Z,10.48
2024-03-08T00:25:33.761Z,11.38
2024-03-08T00:28:02.421Z,10.82
2024-03-08T00:30:32.245Z,10.65
2024-03-08T00:33:01.104Z,11.20
2024-03-08T00:35:29.718Z,9.82
2024-03-08T00:37:59.625Z,9.98
2024-03-08T00:40:28.969Z,10.23
2024-03-08T00:42:57.959Z,11.07
2024-03-08T00:45:26.305Z,9.80
2024-03-08T00:47:55.393Z,10.30
2024-03-08T00:50:24.340Z,10.07
2024-03-08T00:52:53.129Z,11.00
2024-03-08T00:55:23.319Z,10.95
2024-03-08T00:57:51.855Z,10.57
2024-03-08T01:00:22.344Z,10.35
2024-03-08T01:02:51.329Z,10.57
2024-03-08T01:05:20.558Z,10.00
2024-03-08T01:07:49.105Z,11.00
2024-03-08T01:10:17.704Z,10.55
2024-03-08T01:12:47.568Z,12.13
2024-03-08T01:15:16.042Z,10.88
2024-03-08T01:17:45.452Z,10.52
2024-03-08T01:20:14.106Z,11.35
2024-03-08T01:22:43.820Z,11.45
2024-03-08T01:25:12.529Z,12.75
2024-03-08T01:27:40.966Z,12.35
2024-03-08T01:30:11.992Z,11.02
2024-03-08T01:32:40.550Z,10.65
2024-03-08T01:35:11.038Z,10.27
2024-03-08T01:37:40.057Z,10.65
2024-03-08T01:40:09.933Z,9.95
2024-03-08T01:42:39.088Z,11.25
2024-03-08T01:45:08.728Z,10.05
2024-03-08T01:47:39.398Z,10.60
2024-03-08T01:50:08.498Z,10.60
2024-03-08T01:52:37.039Z,10.38
2024-03-08T01:55:08.708Z,10.63
2024-03-08T01:57:39.333Z,9.85
2024-03-08T02:00:12.221Z,9.48
2024-03-08T02:02:45.864Z,9.57
2024-03-08T02:05:15.195Z,10.25
2024-03-08T02:07:45.192Z,10.20
2024-03-08T02:10:15.125Z,10.05
2024-03-08T02:12:44.394Z,10.05
2024-03-08T02:15:13.210Z,8.70
2024-03-08T02:17:44.236Z,9.32
2024-03-08T02:20:14.812Z,9.23
2024-03-08T02:22:45.607Z,11.30
2024-03-08T02:25:14.301Z,10.25
2024-03-08T02:27:42.721Z,10.70
2024-03-08T02:30:14.380Z,11.63
2024-03-08T02:32:43.301Z,10.32
2024-03-08T02:35:11.777Z,11.60
2024-03-08T02:37:40.436Z,14.07
2024-03-08T02:40:11.093Z,11.77
2024-03-08T02:42:38.517Z,11.70
2024-03-08T02:45:07.750Z,12.73
2024-03-08T02:47:36.702Z,12.53
2024-03-08T02:50:06.084Z,12.27
2024-03-08T02:52:35.102Z,13.10
2024-03-08T02:55:03.455Z,11.77
2024-03-08T02:57:33.718Z,14.00
2024-03-08T03:00:02.220Z,15.40
2024-03-08T03:02:31.143Z,11.87
2024-03-08T03:05:00.197Z,12.77
2024-03-08T03:07:29.204Z,13.67
2024-03-08T03:09:58.092Z,17.30
2024-03-08T03:12:27.011Z,13.63
2024-03-08T03:14:57.864Z,13.73
2024-03-08T03:17:26.772Z,14.55
2024-03-08T03:19:56.338Z,16.08
2024-03-08T03:22:26.602Z,17.95
2024-03-08T03:24:55.462Z,16.00
2024-03-08T03:27:24.499Z,17.02
2024-03-08T03:29:53.625Z,11.40
2024-03-08T03:32:24.667Z,13.63
2024-03-08T03:34:54.436Z,14.43
2024-03-08T03:37:22.863Z,17.77
2024-03-08T03:39:53.195Z,14.57
2024-03-08T03:42:22.216Z,15.90
2024-03-08T03:44:51.382Z,14.53
2024-03-08T03:47:20.167Z,14.03
2024-03-08T03:49:50.101Z,14.90
2024-03-08T03:52:18.579Z,13.03
2024-03-08T03:54:47.434Z,16.53
2024-03-08T03:57:15.902Z,14.80
2024-03-08T03:59:44.528Z,13.97
2024-03-08T04:02:12.946Z,14.57
2024-03-08T04:04:41.502Z,13.03
2024-03-08T04:07:12.188Z,14.10
2024-03-08T04:09:41.190Z,16.43
2024-03-08T04:12:11.061Z,15.03
2024-03-08T04:14:41.080Z,14.97
2024-03-08T04:17:10.525Z,15.17
2024-03-08T04:19:38.958Z,16.20
2024-03-08T04:22:08.998Z,14.17
2024-03-08T04:24:38.904Z,15.40
2024-03-08T04:27:07.848Z,14.57
2024-03-08T04:29:37.396Z,16.83
2024-03-08T04:32:06.969Z,17.40
2024-03-08T04:34:36.021Z,16.37
2024-03-08T04:37:06.155Z,13.47
2024-03-08T04:39:34.906Z,16.23
2024-03-08T04:42:07.963Z,15.53
2024-03-08T04:44:36.478Z,17.67
2024-03-08T04:47:07.299Z,16.13
2024-03-08T04:49:36.675Z,17.00
2024-03-08T04:52:05.524Z,17.50
2024-03-08T04:54:34.352Z,15.97
2024-03-08T04:57:06.017Z,18.80
2024-03-08T04:59:37.974Z,17.00
2024-03-08T05:02:08.444Z,19.10
2024-03-08T05:04:37.131Z,15.57
2024-03-08T05:07:06.165Z,16.10
2024-03-08T05:09:35.551Z,16.47
2024-03-08T05:12:04.550Z,15.33
2024-03-08T05:14:33.012Z,15.87
2024-03-08T05:17:03.306Z,17.20
2024-03-08T05:19:34.899Z,11.10
2024-03-08T05:22:04.749Z,15.83
2024-03-08T05:24:33.437Z,14.53
2024-03-08T05:27:02.388Z,19.50
2024-03-08T05:29:31.090Z,16.20
2024-03-08T05:32:00.949Z,19.30
2024-03-08T05:34:30.845Z,19.13
2024-03-08T05:37:00.012Z,15.27
2024-03-08T05:39:29.009Z,19.67
2024-03-08T05:41:57.859Z,15.13
2024-03-08T05:44:26.326Z,18.13
2024-03-08T05:46:54.785Z,17.47
2024-03-08T05:49:23.568Z,17.13
2024-03-08T05:51:55.405Z,19.43
2024-03-08T05:54:26.514Z,16.20
2024-03-08T05:56:55.955Z,18.57
2024-03-08T05:59:25.294Z,17.93
2024-03-08T06:01:54.151Z,19.23
2024-03-08T06:04:22.902Z,15.00
2024-03-08T06:06:53.062Z,19.73
2024-03-08T06:09:25.164Z,17.70
2024-03-08T06:11:55.877Z,15.10
2024-03-08T06:14:25.005Z,16.77
2024-03-08T06:16:53.979Z,17.73
2024-03-08T06:19:22.437Z,13.47
2024-03-08T06:21:51.219Z,17.70
2024-03-08T06:24:21.174Z,14.23
2024-03-08T06:26:50.157Z,17.83
2024-03-08T06:29:18.973Z,16.77
2024-03-08T06:31:47.866Z,20.63
2024-03-08T06:34:16.844Z,17.80
2024-03-08T06:36:45.709Z,15.80
2024-03-08T06:39:14.620Z,17.43
2024-03-08T06:41:45.738Z,17.40
2024-03-08T06:44:14.914Z,17.73
2024-03-08T06:46:43.878Z,19.17
2024-03-08T06:49:12.482Z,19.30
2024-03-08T06:51:42.611Z,19.20
2024-03-08T06:54:11.398Z,16.30
2024-03-08T06:56:40.298Z,17.90
2024-03-08T06:59:14.213Z,15.83
2024-03-08T07:01:42.924Z,18.07
2024-03-08T07:04:13.313Z,17.57
2024-03-08T07:06:42.609Z,16.85
2024-03-08T07:09:11.064Z,18.27
2024-03-08T07:11:41.058Z,17.85
2024-03-08T07:14:12.884Z,15.25
2024-03-08T07:16:42.708Z,15.65
2024-03-08T07:19:11.579Z,17.88
2024-03-08T07:21:40.003Z,17.80
2024-03-08T07:24:25.776Z,19.10
2024-03-08T07:26:54.359Z,14.13
2024-03-08T07:29:24.633Z,16.20
2024-03-08T07:32:02.689Z,18.38
2024-03-08T07:34:33.209Z,12.00
2024-03-08T07:37:02.129Z,20.27
2024-03-08T07:39:30.595Z,21.25
2024-03-08T07:41:59.544Z,18.25
2024-03-08T07:44:30.904Z,17.67
2024-03-08T07:47:00.550Z,19.17
2024-03-08T07:49:28.984Z,17.80
2024-03-08T07:51:57.634Z,15.05
2024-03-08T07:54:27.271Z,16.52
2024-03-08T07:56:56.457Z,15.68
2024-03-08T07:59:24.861Z,17.67
2024-03-08T08:01:55.301Z,17.73
2024-03-08T08:04:26.144Z,16.75
2024-03-08T08:06:56.358Z,15.20
2024-03-08T08:09:36.232Z,15.60
2024-03-08T08:12:05.124Z,16.02
2024-03-08T08:14:33.526Z,16.67
2024-03-08T08:17:05.888Z,18.45
2024-03-08T08:19:34.974Z,16.55
2024-03-08T08:22:04.323Z,15.50
2024-03-08T08:24:33.258Z,16.50
2024-03-08T08:27:02.004Z,17.23
2024-03-08T08:29:31.734Z,15.82
2024-03-08T08:32:02.934Z,15.38
2024-03-08T08:34:34.132Z,16.50
2024-03-08T08:37:03.031Z,16.38
2024-03-08T08:39:32.005Z,17.20
2024-03-08T08:42:00.535Z,19.55
2024-03-08T08:44:29.395Z,15.63
2024-03-08T08:47:03.183Z,17.50
2024-03-08T08:49:39.983Z,16.88
2024-03-08T08:52:12.657Z,18.65
2024-03-08T08:54:48.934Z,17.50
2024-03-08T08:57:19.407Z,15.95
2024-03-08T08:59:47.835Z,17.30
2024-03-08T09:02:18.612Z,18.00
2024-03-08T09:04:50.580Z,17.52
2024-03-08T09:07:20.172Z,19.90
2024-03-08T09:09:49.071Z,17.52
2024-03-08T09:12:18.018Z,17.15
2024-03-08T09:14:46.942Z,17.92
2024-03-08T09:17:18.649Z,15.15
2024-03-08T09:19:47.427Z,15.85
2024-03-08T09:22:17.421Z,16.77
2024-03-08T09:24:47.112Z,18.55
2024-03-08T09:27:16.148Z,20.38
2024-03-08T09:29:45.815Z,20.25
2024-03-08T09:32:14.739Z,17.17
2024-03-08T09:34:43.224Z,17.33
2024-03-08T09:37:12.360Z,18.20
2024-03-08T09:39:42.414Z,16.90
2024-03-08T09:42:12.134Z,16.30
2024-03-08T09:44:40.978Z,18.95
2024-03-08T09:47:09.690Z,21.52
2024-03-08T09:49:39.248Z,18.88
2024-03-08T09:52:08.475Z,17.98
2024-03-08T09:54:37.655Z,21.27
2024-03-08T09:57:10.719Z,19.42
2024-03-08T09:59:49.827Z,19.98
2024-03-08T10:02:19.676Z,19.67
2024-03-08T10:04:52.106Z,16.65
2024-03-08T10:07:20.533Z,16.63
2024-03-08T10:09:51.848Z,18.95
2024-03-08T10:12:23.158Z,15.90
2024-03-08T10:14:51.701Z,17.85
2024-03-08T10:17:20.223Z,16.30
2024-03-08T10:19:55.366Z,17.85
2024-03-08T10:22:23.968Z,17.73
2024-03-08T10:24:52.523Z,19.15
2024-03-08T10:27:22.902Z,17.63
2024-03-08T10:29:53.106Z,17.98
2024-03-08T10:32:22.296Z,18.67
2024-03-08T10:34:51.906Z,17.05
2024-03-08T10:37:25.886Z,18.67
2024-03-08T10:40:00.801Z,18.05
2024-03-08T10:42:33.282Z,15.25
2024-03-08T10:45:10.175Z,19.80
2024-03-08T10:47:42.545Z,15.77
2024-03-08T10:50:14.236Z,15.70
2024-03-08T10:52:42.930Z,14.32
2024-03-08T10:55:13.972Z,17.05
2024-03-08T10:57:44.288Z,17.27
2024-03-08T11:00:13.682Z,16.50
2024-03-08T11:02:43.611Z,16.58
2024-03-08T11:05:14.742Z,16.48
2024-03-08T11:07:43.914Z,13.82
2024-03-08T11:10:21.905Z,17.38
2024-03-08T11:12:51.821Z,17.25
2024-03-08T11:15:20.664Z,17.13
2024-03-08T11:17:50.218Z,18.83
2024-03-08T11:20:21.702Z,17.15
2024-03-08T11:22:53.989Z,14.55
2024-03-08T11:25:37.909Z,17.58
2024-03-08T11:28:24.525Z,15.13
2024-03-08T11:31:09.051Z,14.90
2024-03-08T11:33:39.686Z,17.20
2024-03-08T11:36:13.174Z,13.65
2024-03-08T11:38:43.716Z,16.52
2024-03-08T11:41:18.753Z,14.38
2024-03-08T11:43:48.543Z,16.25
2024-03-08T11:46:17.797Z,15.63
2024-03-08T11:48:50.314Z,15.60
2024-03-08T11:51:20.391Z,17.15
2024-03-08T11:53:49.207Z,14.68
2024-03-08T11:56:18.286Z,16.00
2024-03-08T11:58:57.230Z,14.95
2024-03-08T12:01:26.016Z,13.95
2024-03-08T12:04:00.068Z,15.27
2024-03-08T12:06:28.890Z,17.05
2024-03-08T12:08:57.761Z,12.45
2024-03-08T12:11:28.884Z,14.00
2024-03-08T12:13:59.659Z,14.82
2024-03-08T12:16:29.118Z,16.17
2024-03-08T12:18:59.199Z,13.77
2024-03-08T12:21:30.946Z,17.05
2024-03-08T12:24:06.751Z,14.20
2024-03-08T12:26:35.700Z,14.88
2024-03-08T12:29:21.567Z,14.02
2024-03-08T12:31:51.193Z,16.75
2024-03-08T12:34:21.137Z,15.77
2024-03-08T12:36:50.082Z,13.95
2024-03-08T12:39:28.283Z,13.07
2024-03-08T12:41:58.774Z,14.77
2024-03-08T12:44:29.487Z,14.88
2024-03-08T12:47:01.003Z,14.60
2024-03-08T12:49:32.103Z,14.00
2024-03-08T12:52:00.949Z,14.90
2024-03-08T12:54:29.345Z,12.57
2024-03-08T12:56:57.850Z,13.63
2024-03-08T12:59:26.494Z,13.00
2024-03-08T13:01:56.799Z,15.90
2024-03-08T13:04:27.388Z,14.27
2024-03-08T13:06:57.156Z,13.18
2024-03-08T13:09:28.664Z,12.48
2024-03-08T13:12:00.393Z,12.25
2024-03-08T13:14:33.014Z,13.80
2024-03-08T13:17:01.503Z,11.20
2024-03-08T13:19:30.306Z,13.35
2024-03-08T13:22:00.146Z,13.48
2024-03-08T13:24:29.174Z,13.10
2024-03-08T13:26:57.600Z,14.02
2024-03-08T13:29:26.516Z,12.82
2024-03-08T13:31:57.769Z,11.02
2024-03-08T13:34:31.143Z,10.73
2024-03-08T13:37:02.334Z,12.77
2024-03-08T13:39:36.632Z,10.88
2024-03-08T13:42:10.803Z,10.05
2024-03-08T13:44:39.554Z,11.82
2024-03-08T13:47:08.625Z,13.23
2024-03-08T13:49:38.208Z,12.00
2024-03-08T13:52:09.547Z,10.75
2024-03-08T13:54:38.355Z,10.60
2024-03-08T13:57:09.027Z,10.25
2024-03-08T13:59:39.397Z,10.38
2024-03-08T14:02:11.743Z,10.07
2024-03-08T14:04:41.253Z,10.45
2024-03-08T14:07:12.651Z,10.60
2024-03-08T14:09:43.901Z,10.90
2024-03-08T14:12:12.743Z,9.65
2024-03-08T14:14:41.106Z,8.20
2024-03-08T14:17:12.306Z,9.65
2024-03-08T14:19:41.350Z,8.15
2024-03-08T14:22:14.748Z,9.00
2024-03-08T14:24:43.442Z,10.93
2024-03-08T14:27:13.408Z,9.30
2024-03-08T14:29:41.765Z,9.65
2024-03-08T14:32:11.795Z,8.80
2024-03-08T14:34:40.557Z,7.70
2024-03-08T14:37:13.125Z,12.13
2024-03-08T14:39:43.053Z,13.05
2024-03-08T14:42:14.848Z,11.35
2024-03-08T14:44:44.777Z,9.90
2024-03-08T14:47:15.473Z,12.50
2024-03-08T14:49:44.271Z,13.60
2024-03-08T14:52:28.421Z,11.27
2024-03-08T14:54:59.526Z,15.05
2024-03-08T14:57:28.571Z,12.50
2024-03-08T14:59:57.027Z,14.75
2024-03-08T15:02:25.851Z,10.98
2024-03-08T15:04:58.900Z,12.45
2024-03-08T15:07:28.316Z,14.32
2024-03-08T15:09:58.804Z,12.13
2024-03-08T15:12:29.535Z,13.23
2024-03-08T15:14:58.241Z,12.73
2024-03-08T15:17:26.805Z,11.32
2024-03-08T15:19:55.904Z,12.40
2024-03-08T15:22:25.342Z,12.30
2024-03-08T15:24:54.203Z,15.35
2024-03-08T15:27:25.050Z,12.27
2024-03-08T15:29:57.199Z,10.52
2024-03-08T15:32:25.639Z,12.43
2024-03-08T15:34:55.728Z,13.40
2024-03-08T15:37:26.725Z,11.45
2024-03-08T15:39:55.555Z,16.55
2024-03-08T15:42:27.003Z,14.52
2024-03-08T15:44:57.834Z,12.20
2024-03-08T15:47:27.147Z,13.30
2024-03-08T15:49:56.005Z,11.75
2024-03-08T15:52:24.721Z,10.85
2024-03-08T15:54:54.695Z,12.07
2024-03-08T15:57:23.644Z,12.80
2024-03-08T15:59:54.035Z,12.50
2024-03-08T16:02:24.406Z,11.68
2024-03-08T16:04:53.013Z,12.95
2024-03-08T16:07:21.967Z,11.43
2024-03-08T16:09:52.314Z,11.07
2024-03-08T16:12:20.744Z,13.02
2024-03-08T16:14:49.342Z,13.18
2024-03-08T16:17:19.859Z,12.82
2024-03-08T16:19:48.421Z,10.43
2024-03-08T16:22:19.220Z,10.48
2024-03-08T16:24:51.760Z,10.98
2024-03-08T16:27:21.915Z,12.93
2024-03-08T16:29:53.664Z,10.85
2024-03-08T16:32:23.575Z,12.40
2024-03-08T16:34:52.816Z,11.23
2024-03-08T16:37:21.240Z,10.45
2024-03-08T16:39:49.970Z,11.95
2024-03-08T16:42:18.496Z,10.18
2024-03-08T16:44:47.350Z,11.35
2024-03-08T16:47:17.347Z,12.05
2024-03-08T16:49:47.250Z,9.93
2024-03-08T16:52:15.864Z,10.45
2024-03-08T16:54:52.150Z,11.40
2024-03-08T16:57:26.824Z,10.20
2024-03-08T16:59:55.631Z,11.05
2024-03-08T17:02:24.294Z,11.05
2024-03-08T17:04:54.926Z,11.50
2024-03-08T17:07:23.995Z,11.07
2024-03-08T17:09:52.906Z,9.55
2024-03-08T17:12:21.612Z,11.43
2024-03-08T17:14:50.354Z,10.65
2024-03-08T17:17:19.111Z,10.18
2024-03-08T17:19:47.645Z,10.00
2024-03-08T17:22:17.614Z,11.40
2024-03-08T17:24:46.157Z,11.65
2024-03-08T17:27:17.439Z,9.93
2024-03-08T17:29:46.758Z,9.60
2024-03-08T17:32:15.644Z,12.23
2024-03-08T17:34:44.556Z,11.15
2024-03-08T17:37:16.278Z,11.45
2024-03-08T17:39:46.164Z,11.25
2024-03-08T17:42:15.436Z,11.35
2024-03-08T17:44:46.387Z,9.40
2024-03-08T17:47:16.977Z,11.15
2024-03-08T17:49:45.925Z,10.55
2024-03-08T17:52:14.546Z,11.57
2024-03-08T17:54:43.064Z,11.27
2024-03-08T17:57:13.266Z,10.48
2024-03-08T17:59:41.807Z,11.70
2024-03-08T18:02:14.181Z,11.63
2024-03-08T18:04:42.641Z,10.90
2024-03-08T18:07:12.456Z,9.75
2024-03-08T18:09:41.333Z,11.10
2024-03-08T18:12:10.443Z,10.35
2024-03-08T18:14:41.606Z,11.10
2024-03-08T18:17:13.278Z,11.43
2024-03-08T18:19:41.843Z,11.05
2024-03-08T18:22:12.848Z,9.90
2024-03-08T18:24:42.810Z,11.32
2024-03-08T18:27:11.591Z,12.40
2024-03-08T18:29:41.731Z,9.32
2024-03-08T18:32:10.815Z,10.88
2024-03-08T18:34:44.532Z,10.27
2024-03-08T18:37:14.371Z,10.98
2024-03-08T18:39:43.168Z,10.48
2024-03-08T18:42:13.232Z,10.50
2024-03-08T18:44:43.235Z,9.65
2024-03-08T18:47:11.813Z,10.43
2024-03-08T18:49:40.698Z,11.77
2024-03-08T18:52:09.543Z,9.93
2024-03-08T18:54:37.915Z,10.68
2024-03-08T18:57:07.482Z,10.13
2024-03-08T18:59:38.366Z,9.82
2024-03-08T19:02:08.884Z,10.00
2024-03-08T19:04:37.987Z,10.05
2024-03-08T19:07:06.519Z,9.45
2024-03-08T19:09:35.972Z,10.30
2024-03-08T19:12:09.775Z,9.30
2024-03-08T19:14:39.297Z,10.57
2024-03-08T19:17:11.925Z,9.88
2024-03-08T19:19:40.404Z,8.80
2024-03-08T19:22:09.241Z,9.05
2024-03-08T19:24:37.836Z,8.40
2024-03-08T19:27:08.070Z,8.75
2024-03-08T19:29:36.903Z,9.32
2024-03-08T19:32:05.917Z,8.65
2024-03-08T19:34:36.204Z,8.18
2024-03-08T19:37:05.017Z,9.95
2024-03-08T19:39:33.515Z,9.57
2024-03-08T19:42:01.934Z,9.55
2024-03-08T19:44:31.705Z,8.70
2024-03-08T19:46:59.624Z,9.25
2024-03-08T19:49:28.316Z,9.52
2024-03-08T19:51:58.129Z,8.50
2024-03-08T19:54:27.217Z,7.85
2024-03-08T19:56:55.767Z,9.73
2024-03-08T19:59:25.746Z,9.13
2024-03-08T20:01:54.670Z,9.05
2024-03-08T20:04:23.263Z,9.35
2024-03-08T20:06:52.543Z,8.80
2024-03-08T20:09:26.072Z,9.02
2024-03-08T20:11:56.524Z,8.98
2024-03-08T20:14:27.825Z,7.72
2024-03-08T20:16:57.300Z,7.88
2024-03-08T20:19:26.292Z,8.50
2024-03-08T20:21:55.841Z,7.75
2024-03-08T20:24:25.894Z,7.60
2024-03-08T20:26:54.297Z,7.35
2024-03-08T20:29:23.213Z,7.90
2024-03-08T20:31:51.688Z,8.43
2024-03-08T20:34:20.262Z,8.25
2024-03-08T20:36:50.646Z,7.70
2024-03-08T20:39:22.460Z,7.63
2024-03-08T20:41:55.356Z,7.63
2024-03-08T20:44:24.636Z,8.48
2024-03-08T20:46:53.452Z,7.85
2024-03-08T20:49:22.162Z,9.05
2024-03-08T20:51:50.720Z,9.30
2024-03-08T20:54:19.586Z,9.32
2024-03-08T20:56:48.345Z,7.60
2024-03-08T20:59:18.600Z,7.97
2024-03-08T21:01:47.441Z,8.18
2024-03-08T21:04:16.686Z,8.30
2024-03-08T21:06:48.767Z,8.52
2024-03-08T21:09:17.778Z,9.10
2024-03-08T21:11:46.516Z,10.32
2024-03-08T21:16:45.332Z,9.32
2024-03-08T21:19:14.582Z,9.38
2024-03-08T21:21:43.832Z,11.18
2024-03-08T21:24:13.943Z,10.35
2024-03-08T21:26:42.848Z,10.52
2024-03-08T21:29:11.608Z,10.88
2024-03-08T21:31:40.758Z,10.98
2024-03-08T21:34:10.816Z,10.52
2024-03-08T21:36:40.605Z,10.32
2024-03-08T21:39:12.470Z,10.95
2024-03-08T21:41:42.245Z,11.38
2024-03-08T21:44:10.736Z,11.13
2024-03-08T21:46:39.603Z,12.30
2024-03-08T21:49:08.341Z,10.88
2024-03-08T21:51:47.665Z,10.80
2024-03-08T21:54:18.797Z,11.10
2024-03-08T21:56:47.568Z,11.18
2024-03-08T21:59:18.143Z,11.77
2024-03-08T22:01:49.464Z,11.00
2024-03-08T22:04:18.440Z,10.95
2024-03-08T22:06:51.294Z,11.82
2024-03-08T22:09:21.297Z,12.10
2024-03-08T22:11:50.179Z,12.18
2024-03-08T22:14:18.743Z,11.80
2024-03-08T22:16:48.701Z,12.30
2024-03-08T22:19:17.365Z,12.85
2024-03-08T22:21:45.827Z,12.32
2024-03-08T22:24:16.257Z,12.60
2024-03-08T22:26:45.014Z,12.38
2024-03-08T22:29:13.595Z,12.80
2024-03-08T22:31:42.402Z,12.95
2024-03-08T22:34:11.729Z,11.98
2024-03-08T22:36:41.413Z,11.68
2024-03-08T22:39:11.358Z,12.57
2024-03-08T22:41:41.782Z,12.60
2024-03-08T22:44:10.355Z,9.57
2024-03-08T22:46:38.864Z,11.02
2024-03-08T22:49:08.746Z,11.88
2024-03-08T22:51:38.111Z,11.65
2024-03-08T22:54:06.920Z,12.20
2024-03-08T22:56:35.428Z,12.82
2024-03-08T22:59:06.656Z,14.38
2024-03-08T23:01:35.620Z,14.88
2024-03-08T23:04:04.320Z,13.65
2024-03-08T23:06:33.000Z,17.95
2024-03-08T23:09:01.975Z,15.07
2024-03-08T23:11:30.493Z,15.63
2024-03-08T23:13:59.395Z,13.88
2024-03-08T23:16:29.310Z,12.93
2024-03-08T23:18:58.929Z,13.27
2024-03-08T23:21:27.444Z,15.38
2024-03-08T23:23:56.427Z,13.93
2024-03-08T23:26:24.959Z,13.48
2024-03-08T23:28:53.837Z,13.52
2024-03-08T23:31:23.385Z,14.32
2024-03-08T23:33:53.649Z,13.65
2024-03-08T23:36:22.117Z,14.10
2024-03-08T23:38:51.944Z,13.30
2024-03-08T23:41:20.436Z,14.50
2024-03-08T23:43:49.397Z,15.90
2024-03-08T23:46:17.934Z,15.20
2024-03-08T23:48:48.491Z,16.67
2024-03-08T23:51:19.708Z,17.27
2024-03-08T23:53:48.170Z,16.70
2024-03-08T23:56:16.705Z,17.98
2024-03-08T23:58:46.028Z,17.92
